createdAt,value
2022-12-23T00:00:29.697Z,51.28
2022-12-23T00:05:37.321Z,43.75
2022-12-23T00:10:40.040Z,38.60
2022-12-23T00:15:41.516Z,39.05
2022-12-23T00:20:43.073Z,39.13
2022-12-23T00:25:44.911Z,40.30
2022-12-23T00:30:50.495Z,37.15
2022-12-23T00:35:52.374Z,34.60
2022-12-23T00:41:12.509Z,42.50
2022-12-23T00:46:14.025Z,47.72
2022-12-23T00:51:15.682Z,56.55
2022-12-23T00:56:17.217Z,61.65
2022-12-23T01:01:37.720Z,43.10
2022-12-23T01:06:39.243Z,65.50
2022-12-23T01:11:41.008Z,84.20
2022-12-23T01:16:42.532Z,95.68
2022-12-23T01:21:44.184Z,95.68
2022-12-23T01:26:45.761Z,97.50
2022-12-23T01:31:47.343Z,102.22
2022-12-23T01:36:48.955Z,105.68
2022-12-23T01:42:09.345Z,99.72
2022-12-23T01:47:14.817Z,104.00
2022-12-23T01:52:16.743Z,113.05
2022-12-23T01:57:18.290Z,129.95
2022-12-23T02:02:40.065Z,118.78
2022-12-23T02:08:01.436Z,111.63
2022-12-23T02:13:26.091Z,111.65
2022-12-23T02:19:10.128Z,103.72
2022-12-23T02:24:39.975Z,51.38
2022-12-23T02:30:18.688Z,51.05
2022-12-23T02:35:56.039Z,40.17
2022-12-23T02:41:14.524Z,41.42
2022-12-23T02:46:22.213Z,49.78
2022-12-23T02:56:32.303Z,53.45
2022-12-23T03:01:35.843Z,43.25
2022-12-23T03:06:41.345Z,46.70
2022-12-23T03:12:24.580Z,55.22
2022-12-23T03:17:59.716Z,49.88
2022-12-23T03:23:08.222Z,65.47
2022-12-23T03:28:32.607Z,60.03
2022-12-23T03:33:37.277Z,47.65
2022-12-23T03:38:43.049Z,54.33
2022-12-23T03:43:51.269Z,43.97
2022-12-23T03:48:57.482Z,51.33
2022-12-23T03:54:05.077Z,51.38
2022-12-23T03:59:21.687Z,61.45
2022-12-23T04:04:30.192Z,62.17
2022-12-23T04:09:32.094Z,52.78
2022-12-23T04:14:35.596Z,55.97
2022-12-23T04:19:37.216Z,57.63
2022-12-23T04:24:39.392Z,58.97
2022-12-23T04:29:41.393Z,56.30
2022-12-23T04:34:42.898Z,52.60
2022-12-23T04:39:44.420Z,54.17
2022-12-23T04:44:45.959Z,55.08
2022-12-23T04:49:47.433Z,57.15
2022-12-23T04:54:48.992Z,71.90
2022-12-23T04:59:50.541Z,54.25
2022-12-23T05:04:52.012Z,54.20
2022-12-23T05:09:53.567Z,55.22
2022-12-23T05:14:55.112Z,50.53
2022-12-23T05:19:56.623Z,52.85
2022-12-23T05:24:58.096Z,60.97
2022-12-23T05:29:59.640Z,57.75
2022-12-23T05:35:01.156Z,52.78
2022-12-23T05:40:02.731Z,50.50
2022-12-23T05:45:04.648Z,56.80
2022-12-23T05:50:06.879Z,56.88
2022-12-23T05:55:09.277Z,56.40
2022-12-23T06:00:11.286Z,59.42
2022-12-23T06:05:13.718Z,72.57
2022-12-23T06:10:16.618Z,80.03
2022-12-23T06:15:18.168Z,105.97
2022-12-23T06:20:21.002Z,86.70
2022-12-23T06:25:22.984Z,78.68
2022-12-23T06:30:24.462Z,68.93
2022-12-23T06:35:25.970Z,71.60
2022-12-23T06:40:29.180Z,64.30
2022-12-23T06:45:30.898Z,64.72
2022-12-23T06:50:32.780Z,56.15
2022-12-23T06:55:34.343Z,61.08
2022-12-23T07:00:36.083Z,61.40
2022-12-23T07:05:37.971Z,100.32
2022-12-23T07:10:39.619Z,65.45
2022-12-23T07:15:41.130Z,85.20
2022-12-23T07:20:42.709Z,100.32
2022-12-23T07:25:44.273Z,117.93
2022-12-23T07:30:45.809Z,78.90
2022-12-23T07:35:47.314Z,127.25
2022-12-23T07:40:49.174Z,107.72
2022-12-23T07:45:57.376Z,83.90
2022-12-23T07:51:02.011Z,45.50
2022-12-23T07:56:03.693Z,47.80
2022-12-23T08:01:08.107Z,44.50
2022-12-23T08:06:15.216Z,77.30
2022-12-23T08:11:17.834Z,49.30
2022-12-23T08:16:19.558Z,46.88
2022-12-23T08:21:21.114Z,103.70
2022-12-23T08:26:24.445Z,75.00
2022-12-23T08:31:28.948Z,46.63
2022-12-23T08:36:32.847Z,82.18
2022-12-23T08:41:39.143Z,64.50
2022-12-23T08:46:42.982Z,39.08
2022-12-23T08:51:47.352Z,44.10
2022-12-23T08:56:48.896Z,9.73
2022-12-23T09:01:50.536Z,6.45
2022-12-23T09:06:52.193Z,25.00
2022-12-23T09:11:53.825Z,20.45
2022-12-23T09:16:55.393Z,44.88
2022-12-23T09:21:56.918Z,14.80
2022-12-23T09:26:58.447Z,21.20
2022-12-23T09:32:00.264Z,20.55
2022-12-23T09:37:02.937Z,4.22
2022-12-23T09:42:28.340Z,9.30
2022-12-23T09:47:31.873Z,7.05
2022-12-23T09:52:57.156Z,5.43
2022-12-23T09:58:01.759Z,11.68
2022-12-23T10:03:22.281Z,6.45
2022-12-23T10:08:44.544Z,5.90
2022-12-23T10:13:50.217Z,4.95
2022-12-23T10:18:57.787Z,22.50
2022-12-23T10:24:04.808Z,14.55
2022-12-23T10:29:20.127Z,9.83
2022-12-23T10:34:46.272Z,12.60
2022-12-23T10:40:13.463Z,15.88
2022-12-23T10:45:39.644Z,18.45
2022-12-23T10:50:54.786Z,17.38
2022-12-23T10:55:57.738Z,19.75
2022-12-23T11:01:06.877Z,46.97
2022-12-23T11:06:12.609Z,35.75
2022-12-23T11:11:14.170Z,44.40
2022-12-23T11:16:25.993Z,53.67
2022-12-23T11:21:29.341Z,38.60
2022-12-23T11:26:30.893Z,50.35
2022-12-23T11:31:35.600Z,51.10
2022-12-23T11:36:38.405Z,95.43
2022-12-23T11:41:44.595Z,106.22
2022-12-23T11:46:46.148Z,135.02
2022-12-23T11:52:01.258Z,112.88
2022-12-23T11:57:07.211Z,50.08
2022-12-23T12:02:26.644Z,76.20
2022-12-23T12:07:30.226Z,39.15
2022-12-23T12:12:32.839Z,44.08
2022-12-23T12:17:45.132Z,69.18
2022-12-23T12:22:51.929Z,39.13
2022-12-23T12:28:02.879Z,57.28
2022-12-23T12:33:14.010Z,21.85
2022-12-23T12:38:42.999Z,44.67
2022-12-23T12:43:56.747Z,27.90
2022-12-23T12:49:11.107Z,47.35
2022-12-23T12:54:31.551Z,42.60
2022-12-23T12:59:36.353Z,43.17
2022-12-23T13:05:03.082Z,64.75
2022-12-23T13:10:10.453Z,41.45
2022-12-23T13:15:31.718Z,34.72
2022-12-23T13:20:42.903Z,32.72
2022-12-23T13:25:50.418Z,51.38
2022-12-23T13:31:11.074Z,89.22
2022-12-23T13:36:21.920Z,40.92
2022-12-23T13:41:46.998Z,42.53
2022-12-23T13:47:13.571Z,54.63
2022-12-23T13:52:53.876Z,66.72
2022-12-23T13:58:18.983Z,72.30
2022-12-23T14:03:25.248Z,49.85
2022-12-23T14:08:41.074Z,71.32
2022-12-23T14:13:51.573Z,44.00
2022-12-23T14:19:28.259Z,69.20
2022-12-23T14:25:03.371Z,35.25
2022-12-23T14:30:21.478Z,36.13
2022-12-23T14:40:38.454Z,86.47
2022-12-23T14:45:43.930Z,32.28
2022-12-23T14:51:08.223Z,104.53
2022-12-23T14:56:23.444Z,61.90
2022-12-23T15:01:37.701Z,62.17
2022-12-23T15:06:46.343Z,75.50
2022-12-23T15:11:48.344Z,80.53
2022-12-23T15:16:50.134Z,148.65
2022-12-23T15:22:13.507Z,117.50
2022-12-23T15:27:27.945Z,82.35
2022-12-23T15:32:30.353Z,80.72
2022-12-23T15:37:32.846Z,120.95
2022-12-23T15:42:35.596Z,51.20
2022-12-23T15:47:42.948Z,78.32
2022-12-23T15:52:46.998Z,61.08
2022-12-23T15:57:50.942Z,51.35
2022-12-23T16:03:04.044Z,48.30
2022-12-23T16:08:28.480Z,52.90
2022-12-23T16:13:32.196Z,68.18
2022-12-23T16:18:46.970Z,48.28
2022-12-23T16:23:52.196Z,72.57
2022-12-23T16:28:59.364Z,38.65
2022-12-23T16:34:06.908Z,54.53
2022-12-23T16:39:21.846Z,44.95
2022-12-23T16:44:23.359Z,38.55
2022-12-23T16:49:32.972Z,60.95
2022-12-23T16:54:35.125Z,44.50
2022-12-23T16:59:37.387Z,34.55
2022-12-23T17:04:38.861Z,45.22
2022-12-23T17:09:40.413Z,41.20
2022-12-23T17:14:41.969Z,47.58
2022-12-23T17:19:43.689Z,50.83
2022-12-23T17:24:45.200Z,37.30
2022-12-23T17:29:46.731Z,71.80
2022-12-23T17:34:48.342Z,50.00
2022-12-23T17:39:50.178Z,37.92
2022-12-23T17:44:51.704Z,37.22
2022-12-23T17:49:53.401Z,36.80
2022-12-23T17:54:56.059Z,46.50
2022-12-23T17:59:57.561Z,40.58
2022-12-23T18:04:59.820Z,41.88
2022-12-23T18:10:01.329Z,31.45
2022-12-23T18:15:05.395Z,21.70
2022-12-23T18:20:15.014Z,27.45
2022-12-23T18:25:19.272Z,35.45
2022-12-23T18:30:22.391Z,35.85
2022-12-23T18:35:27.071Z,38.58
2022-12-23T18:40:32.983Z,38.88
2022-12-23T18:45:38.672Z,48.60
2022-12-23T18:50:41.783Z,45.08
2022-12-23T18:55:43.966Z,39.75
2022-12-23T19:00:46.093Z,46.80
2022-12-23T19:05:48.894Z,31.38
2022-12-23T19:10:51.015Z,58.17
2022-12-23T19:15:52.877Z,25.65
2022-12-23T19:20:54.449Z,30.20
2022-12-23T19:25:56.006Z,24.63
2022-12-23T19:30:57.540Z,19.60
2022-12-23T19:35:59.204Z,26.30
2022-12-23T19:41:00.820Z,15.27
2022-12-23T19:46:05.709Z,15.70
2022-12-23T19:51:10.689Z,10.20
2022-12-23T19:56:15.051Z,9.07
2022-12-23T20:01:19.873Z,14.07
2022-12-23T20:06:31.022Z,21.30
2022-12-23T20:11:35.676Z,66.72
2022-12-23T20:16:39.253Z,24.25
2022-12-23T20:21:40.978Z,17.40
2022-12-23T20:26:42.689Z,19.77
2022-12-23T20:31:44.447Z,12.30
2022-12-23T20:36:46.282Z,20.52
2022-12-23T20:41:47.813Z,12.82
2022-12-23T20:46:49.535Z,27.13
2022-12-23T20:51:51.110Z,13.48
2022-12-23T20:56:52.575Z,31.95
2022-12-23T21:01:54.206Z,12.70
2022-12-23T21:06:55.742Z,20.80
2022-12-23T21:11:57.322Z,27.88
2022-12-23T21:16:58.858Z,25.45
2022-12-23T21:22:00.509Z,29.70
2022-12-23T21:27:02.002Z,32.38
2022-12-23T21:32:03.637Z,27.00
2022-12-23T21:37:05.211Z,27.63
2022-12-23T21:42:06.741Z,36.17
2022-12-23T21:47:08.310Z,27.00
2022-12-23T21:52:10.319Z,25.58
2022-12-23T21:57:11.776Z,26.48
2022-12-23T22:02:16.617Z,33.40
2022-12-23T22:07:18.155Z,27.90
2022-12-23T22:12:19.716Z,26.67
2022-12-23T22:17:21.254Z,29.65
2022-12-23T22:22:22.801Z,28.30
2022-12-23T22:27:24.324Z,25.15
2022-12-23T22:32:25.811Z,33.17
2022-12-23T22:37:27.347Z,37.03
2022-12-23T22:42:28.949Z,37.20
2022-12-23T22:47:30.431Z,34.00
2022-12-23T22:52:32.088Z,25.67
2022-12-23T22:57:33.762Z,24.40
2022-12-23T23:02:35.232Z,18.35
2022-12-23T23:07:36.751Z,17.25
2022-12-23T23:12:38.724Z,17.98
2022-12-23T23:17:40.201Z,18.23
2022-12-23T23:22:41.690Z,18.48
2022-12-23T23:27:43.208Z,10.27
2022-12-23T23:32:44.780Z,10.90
2022-12-23T23:37:46.281Z,9.40
2022-12-23T23:42:48.125Z,15.82
2022-12-23T23:47:49.736Z,17.85
2022-12-23T23:52:51.272Z,17.77
2022-12-23T23:57:52.769Z,22.95
